Startpagina
METAR-TAF:

METAR-TAF

Vliegvelden :

Victoria, Mahé, Seychellen

Luchthaven Seychellen

breedte: 04-40S, lengte: 055-31E, hoogte: 3 m

Actueel weer

Dit bericht is 1 uur en het 11 minuten geleden gemaakt, om 03:00 UTC
Wind 3 kt uit het zuidzuidwesten
Temperatuur 26°C
Vochtigheid 89%
Druk 1010 hPa
Zicht 10 km of meer
Weinig wolken op 1900 ft

METAR: FSIA 240300Z 21003KT 9999 FEW019 26/24 Q1010 NOSIG

Tijdstip: 08:11 (04:11 UTC)

Verwachting

Dit bericht is 5 uur en het 9 minuten geleden gemaakt, om 23:02 UTC
Verwachting geldig van 24 om 00 UTC tot 24 om 24 UTC
Wind 3 kt uit variabele richting
Zicht 10 km of meer
Weinig wolken op 1700 ft
Wijzigt naar
van 24 om 06 UTC tot 24 om 08 UTC
Wind 10 kt uit het noordnoordwesten
Verspreide wolken op 1800 ft

TAF: FSIA 232302Z 2400/2424 VRB03KT 9999 FEW017 BECMG 2406/2408 34010KT SCT018

Waarnemingen en weersverwachtingen van meer dan 4000 vliegvelden (METAR en TAF).

De beschikbare stations zijn de gele en rode punten op de kaart.

Ga met uw muis naar het station om de naam te zien.

Klik dan om waarnemingen en weersverwachtingen te zien.

kaart wijzigen: klik op de groene knoppen met een zwart kruis om in te zoomen, op de groene knop met een streepje om uit te zoomen of op de groene pijlen voor aangrenzende kaarten.


METAR-TAF: